sensor_id;sensor_type;location;lat;lon;timestamp;temperature;humidity
10133;DHT22;5106;50.926;7.080;2022-08-19T00:01:28;19.10;80.20
10133;DHT22;5106;50.926;7.080;2022-08-19T00:03:58;19.00;80.40
10133;DHT22;5106;50.926;7.080;2022-08-19T00:06:24;18.90;80.70
10133;DHT22;5106;50.926;7.080;2022-08-19T00:08:50;18.90;80.90
10133;DHT22;5106;50.926;7.080;2022-08-19T00:11:17;18.90;81.00
10133;DHT22;5106;50.926;7.080;2022-08-19T00:13:43;18.90;80.80
10133;DHT22;5106;50.926;7.080;2022-08-19T00:16:08;18.80;80.90
10133;DHT22;5106;50.926;7.080;2022-08-19T00:18:34;18.80;80.70
10133;DHT22;5106;50.926;7.080;2022-08-19T00:21:00;18.80;80.70
10133;DHT22;5106;50.926;7.080;2022-08-19T00:23:26;18.80;80.80
10133;DHT22;5106;50.926;7.080;2022-08-19T00:25:52;18.70;81.00
10133;DHT22;5106;50.926;7.080;2022-08-19T00:28:18;18.70;80.90
10133;DHT22;5106;50.926;7.080;2022-08-19T00:30:45;18.70;80.80
10133;DHT22;5106;50.926;7.080;2022-08-19T00:33:11;18.70;80.90
10133;DHT22;5106;50.926;7.080;2022-08-19T00:35:37;18.60;80.90
10133;DHT22;5106;50.926;7.080;2022-08-19T00:38:04;18.60;80.90
10133;DHT22;5106;50.926;7.080;2022-08-19T00:40:32;18.50;81.10
10133;DHT22;5106;50.926;7.080;2022-08-19T00:42:58;18.50;81.00
10133;DHT22;5106;50.926;7.080;2022-08-19T00:45:28;18.50;81.10
10133;DHT22;5106;50.926;7.080;2022-08-19T00:47:56;18.50;81.10
10133;DHT22;5106;50.926;7.080;2022-08-19T00:50:23;18.50;81.10
10133;DHT22;5106;50.926;7.080;2022-08-19T00:52:50;18.50;81.10
10133;DHT22;5106;50.926;7.080;2022-08-19T00:55:23;18.50;81.00
10133;DHT22;5106;50.926;7.080;2022-08-19T00:57:55;18.40;80.90
10133;DHT22;5106;50.926;7.080;2022-08-19T01:00:23;18.40;80.80
10133;DHT22;5106;50.926;7.080;2022-08-19T01:02:49;18.40;80.70
10133;DHT22;5106;50.926;7.080;2022-08-19T01:05:18;18.40;80.90
10133;DHT22;5106;50.926;7.080;2022-08-19T01:07:46;18.30;81.00
10133;DHT22;5106;50.926;7.080;2022-08-19T01:10:16;18.30;80.90
10133;DHT22;5106;50.926;7.080;2022-08-19T01:12:45;18.20;80.90
10133;DHT22;5106;50.926;7.080;2022-08-19T01:15:12;18.20;81.20
10133;DHT22;5106;50.926;7.080;2022-08-19T01:17:40;18.10;81.30
10133;DHT22;5106;50.926;7.080;2022-08-19T01:20:10;18.10;81.40
10133;DHT22;5106;50.926;7.080;2022-08-19T01:22:47;18.00;81.50
10133;DHT22;5106;50.926;7.080;2022-08-19T01:25:15;18.00;81.60
10133;DHT22;5106;50.926;7.080;2022-08-19T01:27:47;18.00;81.50
10133;DHT22;5106;50.926;7.080;2022-08-19T01:30:20;17.90;81.70
10133;DHT22;5106;50.926;7.080;2022-08-19T01:32:48;17.90;81.90
10133;DHT22;5106;50.926;7.080;2022-08-19T01:35:14;17.90;81.80
10133;DHT22;5106;50.926;7.080;2022-08-19T01:37:49;17.90;81.70
10133;DHT22;5106;50.926;7.080;2022-08-19T01:40:16;17.90;81.70
10133;DHT22;5106;50.926;7.080;2022-08-19T01:42:42;17.90;81.80
10133;DHT22;5106;50.926;7.080;2022-08-19T01:45:08;17.80;81.70
10133;DHT22;5106;50.926;7.080;2022-08-19T01:47:37;17.80;81.80
10133;DHT22;5106;50.926;7.080;2022-08-19T01:50:05;17.80;81.90
10133;DHT22;5106;50.926;7.080;2022-08-19T01:52:31;17.70;81.90
10133;DHT22;5106;50.926;7.080;2022-08-19T01:54:57;17.70;81.90
10133;DHT22;5106;50.926;7.080;2022-08-19T01:57:23;17.70;82.10
10133;DHT22;5106;50.926;7.080;2022-08-19T01:59:48;17.70;82.00
10133;DHT22;5106;50.926;7.080;2022-08-19T02:02:15;17.70;82.00
10133;DHT22;5106;50.926;7.080;2022-08-19T02:04:41;17.60;82.00
10133;DHT22;5106;50.926;7.080;2022-08-19T02:07:07;17.60;82.00
10133;DHT22;5106;50.926;7.080;2022-08-19T02:09:33;17.60;82.10
10133;DHT22;5106;50.926;7.080;2022-08-19T02:11:59;17.50;82.30
10133;DHT22;5106;50.926;7.080;2022-08-19T02:14:24;17.50;82.30
10133;DHT22;5106;50.926;7.080;2022-08-19T02:16:50;17.50;82.20
10133;DHT22;5106;50.926;7.080;2022-08-19T02:19:16;17.50;82.10
10133;DHT22;5106;50.926;7.080;2022-08-19T02:21:41;17.50;82.20
10133;DHT22;5106;50.926;7.080;2022-08-19T02:24:08;17.50;82.20
10133;DHT22;5106;50.926;7.080;2022-08-19T02:26:34;17.40;82.20
10133;DHT22;5106;50.926;7.080;2022-08-19T02:29:00;17.40;82.10
10133;DHT22;5106;50.926;7.080;2022-08-19T02:31:26;17.30;82.40
10133;DHT22;5106;50.926;7.080;2022-08-19T02:33:54;17.30;82.60
10133;DHT22;5106;50.926;7.080;2022-08-19T02:36:20;17.30;82.60
10133;DHT22;5106;50.926;7.080;2022-08-19T02:38:46;17.30;82.40
10133;DHT22;5106;50.926;7.080;2022-08-19T02:41:19;17.30;82.50
10133;DHT22;5106;50.926;7.080;2022-08-19T02:43:46;17.30;82.50
10133;DHT22;5106;50.926;7.080;2022-08-19T02:46:20;17.30;82.50
10133;DHT22;5106;50.926;7.080;2022-08-19T02:48:51;17.30;82.50
10133;DHT22;5106;50.926;7.080;2022-08-19T02:51:19;17.30;82.60
10133;DHT22;5106;50.926;7.080;2022-08-19T02:53:45;17.30;82.50
10133;DHT22;5106;50.926;7.080;2022-08-19T02:56:11;17.20;82.50
10133;DHT22;5106;50.926;7.080;2022-08-19T02:58:36;17.20;82.60
10133;DHT22;5106;50.926;7.080;2022-08-19T03:01:02;17.10;82.60
10133;DHT22;5106;50.926;7.080;2022-08-19T03:03:28;17.10;82.90
10133;DHT22;5106;50.926;7.080;2022-08-19T03:06:11;17.10;82.90
10133;DHT22;5106;50.926;7.080;2022-08-19T03:08:42;17.10;82.90
10133;DHT22;5106;50.926;7.080;2022-08-19T03:11:16;17.10;82.80
10133;DHT22;5106;50.926;7.080;2022-08-19T03:13:42;17.10;82.60
10133;DHT22;5106;50.926;7.080;2022-08-19T03:16:09;17.20;82.60
10133;DHT22;5106;50.926;7.080;2022-08-19T03:18:35;17.20;82.60
10133;DHT22;5106;50.926;7.080;2022-08-19T03:21:01;17.20;82.60
10133;DHT22;5106;50.926;7.080;2022-08-19T03:23:27;17.20;82.60
10133;DHT22;5106;50.926;7.080;2022-08-19T03:25:53;17.20;82.70
10133;DHT22;5106;50.926;7.080;2022-08-19T03:28:20;17.20;82.60
10133;DHT22;5106;50.926;7.080;2022-08-19T03:31:00;17.20;82.70
10133;DHT22;5106;50.926;7.080;2022-08-19T03:33:28;17.20;82.50
10133;DHT22;5106;50.926;7.080;2022-08-19T03:36:07;17.20;82.50
10133;DHT22;5106;50.926;7.080;2022-08-19T03:38:37;17.20;82.60
10133;DHT22;5106;50.926;7.080;2022-08-19T03:41:09;17.10;82.50
10133;DHT22;5106;50.926;7.080;2022-08-19T03:43:36;17.10;82.70
10133;DHT22;5106;50.926;7.080;2022-08-19T03:46:05;17.10;82.70
10133;DHT22;5106;50.926;7.080;2022-08-19T03:48:32;17.00;82.80
10133;DHT22;5106;50.926;7.080;2022-08-19T03:50:59;17.00;83.00
10133;DHT22;5106;50.926;7.080;2022-08-19T03:53:27;16.90;83.10
10133;DHT22;5106;50.926;7.080;2022-08-19T03:55:53;17.00;83.20
10133;DHT22;5106;50.926;7.080;2022-08-19T03:58:19;17.00;83.10
10133;DHT22;5106;50.926;7.080;2022-08-19T04:00:45;17.00;83.00
10133;DHT22;5106;50.926;7.080;2022-08-19T04:03:10;17.00;83.00
10133;DHT22;5106;50.926;7.080;2022-08-19T04:05:36;17.00;82.90
10133;DHT22;5106;50.926;7.080;2022-08-19T04:08:04;16.90;82.90
10133;DHT22;5106;50.926;7.080;2022-08-19T04:10:35;16.90;82.90
10133;DHT22;5106;50.926;7.080;2022-08-19T04:13:01;16.90;83.00
10133;DHT22;5106;50.926;7.080;2022-08-19T04:15:26;16.90;83.10
10133;DHT22;5106;50.926;7.080;2022-08-19T04:17:54;16.90;83.00
10133;DHT22;5106;50.926;7.080;2022-08-19T04:20:20;16.90;83.00
10133;DHT22;5106;50.926;7.080;2022-08-19T04:22:45;16.90;83.00
10133;DHT22;5106;50.926;7.080;2022-08-19T04:25:11;16.90;83.00
10133;DHT22;5106;50.926;7.080;2022-08-19T04:27:37;16.90;83.00
10133;DHT22;5106;50.926;7.080;2022-08-19T04:30:03;16.80;83.10
10133;DHT22;5106;50.926;7.080;2022-08-19T04:32:29;16.80;83.20
10133;DHT22;5106;50.926;7.080;2022-08-19T04:34:57;16.90;83.20
10133;DHT22;5106;50.926;7.080;2022-08-19T04:37:25;16.90;83.20
10133;DHT22;5106;50.926;7.080;2022-08-19T04:39:52;16.90;83.10
10133;DHT22;5106;50.926;7.080;2022-08-19T04:42:36;16.90;83.10
10133;DHT22;5106;50.926;7.080;2022-08-19T04:45:10;16.90;83.20
10133;DHT22;5106;50.926;7.080;2022-08-19T04:47:38;16.90;83.30
10133;DHT22;5106;50.926;7.080;2022-08-19T04:50:05;16.80;83.40
10133;DHT22;5106;50.926;7.080;2022-08-19T04:52:31;16.80;83.40
10133;DHT22;5106;50.926;7.080;2022-08-19T04:54:58;16.80;83.40
10133;DHT22;5106;50.926;7.080;2022-08-19T04:57:24;16.80;83.40
10133;DHT22;5106;50.926;7.080;2022-08-19T04:59:54;16.80;83.30
10133;DHT22;5106;50.926;7.080;2022-08-19T05:02:20;16.70;83.50
10133;DHT22;5106;50.926;7.080;2022-08-19T05:04:48;16.70;83.30
10133;DHT22;5106;50.926;7.080;2022-08-19T05:07:13;16.70;83.40
10133;DHT22;5106;50.926;7.080;2022-08-19T05:09:39;16.70;83.50
10133;DHT22;5106;50.926;7.080;2022-08-19T05:12:05;16.60;83.60
10133;DHT22;5106;50.926;7.080;2022-08-19T05:14:31;16.70;83.60
10133;DHT22;5106;50.926;7.080;2022-08-19T05:16:57;16.70;83.70
10133;DHT22;5106;50.926;7.080;2022-08-19T05:19:22;16.70;83.50
10133;DHT22;5106;50.926;7.080;2022-08-19T05:22:23;16.70;83.50
10133;DHT22;5106;50.926;7.080;2022-08-19T05:24:58;16.70;83.70
10133;DHT22;5106;50.926;7.080;2022-08-19T05:27:25;16.80;83.80
10133;DHT22;5106;50.926;7.080;2022-08-19T05:29:51;16.80;83.60
10133;DHT22;5106;50.926;7.080;2022-08-19T05:32:16;16.90;83.50
10133;DHT22;5106;50.926;7.080;2022-08-19T05:34:42;16.90;83.50
10133;DHT22;5106;50.926;7.080;2022-08-19T05:37:08;16.90;83.30
10133;DHT22;5106;50.926;7.080;2022-08-19T05:39:35;17.00;83.20
10133;DHT22;5106;50.926;7.080;2022-08-19T05:42:05;16.90;83.30
10133;DHT22;5106;50.926;7.080;2022-08-19T05:44:34;16.90;83.50
10133;DHT22;5106;50.926;7.080;2022-08-19T05:47:02;17.00;83.60
10133;DHT22;5106;50.926;7.080;2022-08-19T05:49:30;17.00;83.70
10133;DHT22;5106;50.926;7.080;2022-08-19T05:51:57;17.00;83.70
10133;DHT22;5106;50.926;7.080;2022-08-19T05:54:25;17.00;83.80
10133;DHT22;5106;50.926;7.080;2022-08-19T05:56:51;17.10;83.80
10133;DHT22;5106;50.926;7.080;2022-08-19T05:59:19;17.10;83.70
10133;DHT22;5106;50.926;7.080;2022-08-19T06:01:48;17.10;83.70
10133;DHT22;5106;50.926;7.080;2022-08-19T06:04:18;17.20;83.70
10133;DHT22;5106;50.926;7.080;2022-08-19T06:06:45;17.20;83.70
10133;DHT22;5106;50.926;7.080;2022-08-19T06:09:12;17.30;83.60
10133;DHT22;5106;50.926;7.080;2022-08-19T06:11:41;17.30;83.50
10133;DHT22;5106;50.926;7.080;2022-08-19T06:14:14;17.40;83.40
10133;DHT22;5106;50.926;7.080;2022-08-19T06:16:41;17.50;83.30
10133;DHT22;5106;50.926;7.080;2022-08-19T06:19:10;17.60;83.20
10133;DHT22;5106;50.926;7.080;2022-08-19T06:21:39;17.70;83.10
10133;DHT22;5106;50.926;7.080;2022-08-19T06:24:08;17.80;82.80
10133;DHT22;5106;50.926;7.080;2022-08-19T06:26:35;17.90;82.70
10133;DHT22;5106;50.926;7.080;2022-08-19T06:29:03;18.00;82.50
10133;DHT22;5106;50.926;7.080;2022-08-19T06:31:31;18.10;82.40
10133;DHT22;5106;50.926;7.080;2022-08-19T06:34:00;18.20;82.40
10133;DHT22;5106;50.926;7.080;2022-08-19T06:36:33;18.30;82.40
10133;DHT22;5106;50.926;7.080;2022-08-19T06:39:05;18.30;82.20
10133;DHT22;5106;50.926;7.080;2022-08-19T06:41:35;18.40;82.10
10133;DHT22;5106;50.926;7.080;2022-08-19T06:44:00;18.50;82.00
10133;DHT22;5106;50.926;7.080;2022-08-19T06:46:26;18.60;81.90
10133;DHT22;5106;50.926;7.080;2022-08-19T06:48:52;18.70;81.80
10133;DHT22;5106;50.926;7.080;2022-08-19T06:51:19;18.80;81.70
10133;DHT22;5106;50.926;7.080;2022-08-19T06:53:46;18.90;81.50
10133;DHT22;5106;50.926;7.080;2022-08-19T06:56:13;19.00;81.40
10133;DHT22;5106;50.926;7.080;2022-08-19T06:58:39;19.10;81.30
10133;DHT22;5106;50.926;7.080;2022-08-19T07:01:06;19.20;81.10
10133;DHT22;5106;50.926;7.080;2022-08-19T07:03:33;19.30;81.10
10133;DHT22;5106;50.926;7.080;2022-08-19T07:06:19;19.40;81.30
10133;DHT22;5106;50.926;7.080;2022-08-19T07:08:46;19.60;82.20
10133;DHT22;5106;50.926;7.080;2022-08-19T07:11:14;19.70;82.50
10133;DHT22;5106;50.926;7.080;2022-08-19T07:13:41;19.90;82.60
10133;DHT22;5106;50.926;7.080;2022-08-19T07:16:13;20.00;82.60
10133;DHT22;5106;50.926;7.080;2022-08-19T07:18:40;20.10;82.50
10133;DHT22;5106;50.926;7.080;2022-08-19T07:21:09;20.20;82.20
10133;DHT22;5106;50.926;7.080;2022-08-19T07:23:34;20.30;82.00
10133;DHT22;5106;50.926;7.080;2022-08-19T07:26:31;20.40;81.80
10133;DHT22;5106;50.926;7.080;2022-08-19T07:28:58;20.40;81.70
10133;DHT22;5106;50.926;7.080;2022-08-19T07:31:27;20.60;81.60
10133;DHT22;5106;50.926;7.080;2022-08-19T07:33:54;20.60;81.10
10133;DHT22;5106;50.926;7.080;2022-08-19T07:36:24;20.70;81.10
10133;DHT22;5106;50.926;7.080;2022-08-19T07:38:51;20.70;81.20
10133;DHT22;5106;50.926;7.080;2022-08-19T07:41:21;20.80;80.80
10133;DHT22;5106;50.926;7.080;2022-08-19T07:43:48;20.90;80.60
10133;DHT22;5106;50.926;7.080;2022-08-19T07:46:14;21.00;80.60
10133;DHT22;5106;50.926;7.080;2022-08-19T07:48:42;21.00;81.10
10133;DHT22;5106;50.926;7.080;2022-08-19T07:51:10;21.10;81.20
10133;DHT22;5106;50.926;7.080;2022-08-19T07:53:37;21.20;80.70
10133;DHT22;5106;50.926;7.080;2022-08-19T07:56:04;21.30;79.90
10133;DHT22;5106;50.926;7.080;2022-08-19T07:58:34;21.40;80.20
10133;DHT22;5106;50.926;7.080;2022-08-19T08:01:01;21.40;79.70
10133;DHT22;5106;50.926;7.080;2022-08-19T08:03:28;21.50;79.80
10133;DHT22;5106;50.926;7.080;2022-08-19T08:06:13;21.60;79.30
10133;DHT22;5106;50.926;7.080;2022-08-19T08:08:58;21.70;78.70
10133;DHT22;5106;50.926;7.080;2022-08-19T08:11:44;21.80;78.20
10133;DHT22;5106;50.926;7.080;2022-08-19T08:14:21;21.80;77.80
10133;DHT22;5106;50.926;7.080;2022-08-19T08:16:49;21.80;77.80
10133;DHT22;5106;50.926;7.080;2022-08-19T08:19:17;21.80;77.60
10133;DHT22;5106;50.926;7.080;2022-08-19T08:21:43;21.80;77.70
10133;DHT22;5106;50.926;7.080;2022-08-19T08:24:10;21.80;77.30
10133;DHT22;5106;50.926;7.080;2022-08-19T08:26:36;21.70;76.60
10133;DHT22;5106;50.926;7.080;2022-08-19T08:29:02;21.70;76.90
10133;DHT22;5106;50.926;7.080;2022-08-19T08:31:28;21.70;76.80
10133;DHT22;5106;50.926;7.080;2022-08-19T08:33:54;21.70;75.90
10133;DHT22;5106;50.926;7.080;2022-08-19T08:36:20;21.70;76.30
10133;DHT22;5106;50.926;7.080;2022-08-19T08:38:46;21.70;76.40
10133;DHT22;5106;50.926;7.080;2022-08-19T08:43:51;21.80;76.80
10133;DHT22;5106;50.926;7.080;2022-08-19T08:46:28;21.90;76.60
10133;DHT22;5106;50.926;7.080;2022-08-19T08:51:42;22.20;76.00
10133;DHT22;5106;50.926;7.080;2022-08-19T08:54:13;22.40;75.40
10133;DHT22;5106;50.926;7.080;2022-08-19T08:56:43;22.50;75.30
10133;DHT22;5106;50.926;7.080;2022-08-19T08:59:29;22.70;74.90
10133;DHT22;5106;50.926;7.080;2022-08-19T09:01:59;22.80;74.90
10133;DHT22;5106;50.926;7.080;2022-08-19T09:04:25;22.90;74.40
10133;DHT22;5106;50.926;7.080;2022-08-19T09:09:48;23.10;73.50
10133;DHT22;5106;50.926;7.080;2022-08-19T09:12:37;23.30;73.20
10133;DHT22;5106;50.926;7.080;2022-08-19T09:15:07;23.40;73.20
10133;DHT22;5106;50.926;7.080;2022-08-19T09:17:34;23.40;72.40
10133;DHT22;5106;50.926;7.080;2022-08-19T09:20:20;23.30;72.60
10133;DHT22;5106;50.926;7.080;2022-08-19T09:22:46;23.40;72.80
10133;DHT22;5106;50.926;7.080;2022-08-19T09:25:17;23.40;72.40
10133;DHT22;5106;50.926;7.080;2022-08-19T09:27:43;23.50;73.10
10133;DHT22;5106;50.926;7.080;2022-08-19T09:30:22;23.60;72.80
10133;DHT22;5106;50.926;7.080;2022-08-19T09:32:49;23.80;72.30
10133;DHT22;5106;50.926;7.080;2022-08-19T09:35:18;24.00;72.00
10133;DHT22;5106;50.926;7.080;2022-08-19T09:37:43;24.10;71.30
10133;DHT22;5106;50.926;7.080;2022-08-19T09:40:10;24.20;70.30
10133;DHT22;5106;50.926;7.080;2022-08-19T09:42:36;24.20;70.90
10133;DHT22;5106;50.926;7.080;2022-08-19T09:45:03;24.20;69.30
10133;DHT22;5106;50.926;7.080;2022-08-19T09:47:29;24.20;69.90
10133;DHT22;5106;50.926;7.080;2022-08-19T09:49:55;24.40;70.20
10133;DHT22;5106;50.926;7.080;2022-08-19T09:52:21;24.40;69.50
10133;DHT22;5106;50.926;7.080;2022-08-19T09:54:47;24.50;69.00
10133;DHT22;5106;50.926;7.080;2022-08-19T09:57:12;24.50;69.10
10133;DHT22;5106;50.926;7.080;2022-08-19T09:59:39;24.60;69.40
10133;DHT22;5106;50.926;7.080;2022-08-19T10:02:04;24.70;68.50
10133;DHT22;5106;50.926;7.080;2022-08-19T10:04:30;24.70;67.50
10133;DHT22;5106;50.926;7.080;2022-08-19T10:07:14;24.70;67.60
10133;DHT22;5106;50.926;7.080;2022-08-19T10:09:40;24.60;66.60
10133;DHT22;5106;50.926;7.080;2022-08-19T10:12:06;24.70;66.50
10133;DHT22;5106;50.926;7.080;2022-08-19T10:14:33;24.80;66.20
10133;DHT22;5106;50.926;7.080;2022-08-19T10:16:58;24.90;66.50
10133;DHT22;5106;50.926;7.080;2022-08-19T10:19:26;25.00;66.50
10133;DHT22;5106;50.926;7.080;2022-08-19T10:21:57;25.20;66.40
10133;DHT22;5106;50.926;7.080;2022-08-19T10:24:23;25.30;65.10
10133;DHT22;5106;50.926;7.080;2022-08-19T10:26:51;25.50;65.80
10133;DHT22;5106;50.926;7.080;2022-08-19T10:29:16;25.50;63.50
10133;DHT22;5106;50.926;7.080;2022-08-19T10:31:42;25.50;63.90
10133;DHT22;5106;50.926;7.080;2022-08-19T10:34:08;25.50;64.20
10133;DHT22;5106;50.926;7.080;2022-08-19T10:36:36;25.40;63.00
10133;DHT22;5106;50.926;7.080;2022-08-19T10:39:05;25.40;63.80
10133;DHT22;5106;50.926;7.080;2022-08-19T10:41:33;25.40;63.80
10133;DHT22;5106;50.926;7.080;2022-08-19T10:44:02;25.30;63.70
10133;DHT22;5106;50.926;7.080;2022-08-19T10:46:29;25.20;63.30
10133;DHT22;5106;50.926;7.080;2022-08-19T10:48:58;25.30;65.10
10133;DHT22;5106;50.926;7.080;2022-08-19T10:51:24;25.30;63.30
10133;DHT22;5106;50.926;7.080;2022-08-19T10:54:09;25.40;62.80
10133;DHT22;5106;50.926;7.080;2022-08-19T10:56:35;25.20;63.30
10133;DHT22;5106;50.926;7.080;2022-08-19T10:59:27;25.20;63.60
10133;DHT22;5106;50.926;7.080;2022-08-19T11:01:58;25.20;63.90
10133;DHT22;5106;50.926;7.080;2022-08-19T11:04:24;25.20;63.30
10133;DHT22;5106;50.926;7.080;2022-08-19T11:06:50;25.10;64.10
10133;DHT22;5106;50.926;7.080;2022-08-19T11:09:21;25.30;64.80
10133;DHT22;5106;50.926;7.080;2022-08-19T11:11:47;25.50;63.70
10133;DHT22;5106;50.926;7.080;2022-08-19T11:14:15;25.70;63.40
10133;DHT22;5106;50.926;7.080;2022-08-19T11:16:43;25.70;63.30
10133;DHT22;5106;50.926;7.080;2022-08-19T11:19:11;25.70;62.40
10133;DHT22;5106;50.926;7.080;2022-08-19T11:21:40;25.50;62.40
10133;DHT22;5106;50.926;7.080;2022-08-19T11:24:10;25.50;62.80
10133;DHT22;5106;50.926;7.080;2022-08-19T11:26:38;25.50;63.20
10133;DHT22;5106;50.926;7.080;2022-08-19T11:29:05;25.60;63.50
10133;DHT22;5106;50.926;7.080;2022-08-19T11:31:33;25.70;62.00
10133;DHT22;5106;50.926;7.080;2022-08-19T11:34:03;25.90;61.70
10133;DHT22;5106;50.926;7.080;2022-08-19T11:36:30;26.00;62.10
10133;DHT22;5106;50.926;7.080;2022-08-19T11:38:57;26.10;61.70
10133;DHT22;5106;50.926;7.080;2022-08-19T11:41:24;26.20;62.30
10133;DHT22;5106;50.926;7.080;2022-08-19T11:43:52;26.30;61.60
10133;DHT22;5106;50.926;7.080;2022-08-19T11:46:19;26.30;62.00
10133;DHT22;5106;50.926;7.080;2022-08-19T11:48:46;26.20;62.00
10133;DHT22;5106;50.926;7.080;2022-08-19T11:51:15;26.10;61.40
10133;DHT22;5106;50.926;7.080;2022-08-19T11:53:41;26.10;61.10
10133;DHT22;5106;50.926;7.080;2022-08-19T11:56:08;26.20;62.00
10133;DHT22;5106;50.926;7.080;2022-08-19T11:58:34;26.30;60.90
10133;DHT22;5106;50.926;7.080;2022-08-19T12:01:00;26.30;61.00
10133;DHT22;5106;50.926;7.080;2022-08-19T12:03:26;26.30;60.80
10133;DHT22;5106;50.926;7.080;2022-08-19T12:05:51;26.20;61.90
10133;DHT22;5106;50.926;7.080;2022-08-19T12:08:18;26.20;63.00
10133;DHT22;5106;50.926;7.080;2022-08-19T12:10:44;26.30;62.40
10133;DHT22;5106;50.926;7.080;2022-08-19T12:13:12;26.30;62.10
10133;DHT22;5106;50.926;7.080;2022-08-19T12:15:44;26.30;61.00
10133;DHT22;5106;50.926;7.080;2022-08-19T12:18:11;26.30;61.50
10133;DHT22;5106;50.926;7.080;2022-08-19T12:20:40;26.30;62.40
10133;DHT22;5106;50.926;7.080;2022-08-19T12:23:07;26.20;61.50
10133;DHT22;5106;50.926;7.080;2022-08-19T12:25:35;26.00;61.30
10133;DHT22;5106;50.926;7.080;2022-08-19T12:28:03;25.90;61.00
10133;DHT22;5106;50.926;7.080;2022-08-19T12:30:29;25.90;61.00
10133;DHT22;5106;50.926;7.080;2022-08-19T12:32:54;25.80;60.70
10133;DHT22;5106;50.926;7.080;2022-08-19T12:35:21;25.90;60.80
10133;DHT22;5106;50.926;7.080;2022-08-19T12:37:47;25.90;63.00
10133;DHT22;5106;50.926;7.080;2022-08-19T12:40:15;26.00;62.20
10133;DHT22;5106;50.926;7.080;2022-08-19T12:42:41;26.30;61.80
10133;DHT22;5106;50.926;7.080;2022-08-19T12:45:08;26.40;61.50
10133;DHT22;5106;50.926;7.080;2022-08-19T12:47:34;26.50;61.80
10133;DHT22;5106;50.926;7.080;2022-08-19T12:50:00;26.60;61.50
10133;DHT22;5106;50.926;7.080;2022-08-19T12:52:26;26.60;60.10
10133;DHT22;5106;50.926;7.080;2022-08-19T12:54:53;26.70;60.10
10133;DHT22;5106;50.926;7.080;2022-08-19T12:57:20;26.80;59.00
10133;DHT22;5106;50.926;7.080;2022-08-19T12:59:45;26.80;58.10
10133;DHT22;5106;50.926;7.080;2022-08-19T13:02:11;26.90;57.90
10133;DHT22;5106;50.926;7.080;2022-08-19T13:04:36;26.90;56.70
10133;DHT22;5106;50.926;7.080;2022-08-19T13:07:07;26.90;57.00
10133;DHT22;5106;50.926;7.080;2022-08-19T13:09:34;26.90;56.70
10133;DHT22;5106;50.926;7.080;2022-08-19T13:11:59;26.80;58.00
10133;DHT22;5106;50.926;7.080;2022-08-19T13:14:28;27.00;59.70
10133;DHT22;5106;50.926;7.080;2022-08-19T13:16:56;27.00;57.40
10133;DHT22;5106;50.926;7.080;2022-08-19T13:19:22;27.00;58.00
10133;DHT22;5106;50.926;7.080;2022-08-19T13:21:50;27.00;58.00
10133;DHT22;5106;50.926;7.080;2022-08-19T13:24:16;27.10;57.20
10133;DHT22;5106;50.926;7.080;2022-08-19T13:26:42;27.10;57.10
10133;DHT22;5106;50.926;7.080;2022-08-19T13:29:08;27.10;59.00
10133;DHT22;5106;50.926;7.080;2022-08-19T13:31:52;27.20;57.70
10133;DHT22;5106;50.926;7.080;2022-08-19T13:34:36;27.30;58.00
10133;DHT22;5106;50.926;7.080;2022-08-19T13:37:03;27.50;59.10
10133;DHT22;5106;50.926;7.080;2022-08-19T13:39:33;27.60;56.70
10133;DHT22;5106;50.926;7.080;2022-08-19T13:41:59;27.70;57.50
10133;DHT22;5106;50.926;7.080;2022-08-19T13:44:26;27.80;56.20
10133;DHT22;5106;50.926;7.080;2022-08-19T13:46:59;27.90;57.50
10133;DHT22;5106;50.926;7.080;2022-08-19T13:49:28;27.90;56.60
10133;DHT22;5106;50.926;7.080;2022-08-19T13:51:55;27.90;55.20
10133;DHT22;5106;50.926;7.080;2022-08-19T13:54:21;27.80;54.90
10133;DHT22;5106;50.926;7.080;2022-08-19T13:56:46;27.80;56.20
10133;DHT22;5106;50.926;7.080;2022-08-19T13:59:12;27.90;56.50
10133;DHT22;5106;50.926;7.080;2022-08-19T14:01:38;27.90;54.00
10133;DHT22;5106;50.926;7.080;2022-08-19T14:04:04;27.90;53.70
10133;DHT22;5106;50.926;7.080;2022-08-19T14:06:31;27.90;53.80
10133;DHT22;5106;50.926;7.080;2022-08-19T14:08:57;27.80;53.20
10133;DHT22;5106;50.926;7.080;2022-08-19T14:11:22;27.80;52.60
10133;DHT22;5106;50.926;7.080;2022-08-19T14:13:49;27.90;53.10
10133;DHT22;5106;50.926;7.080;2022-08-19T14:16:14;27.90;52.20
10133;DHT22;5106;50.926;7.080;2022-08-19T14:18:41;27.90;51.80
10133;DHT22;5106;50.926;7.080;2022-08-19T14:21:07;28.00;51.50
10133;DHT22;5106;50.926;7.080;2022-08-19T14:23:33;28.00;51.80
10133;DHT22;5106;50.926;7.080;2022-08-19T14:26:20;28.00;53.00
10133;DHT22;5106;50.926;7.080;2022-08-19T14:28:46;28.20;53.70
10133;DHT22;5106;50.926;7.080;2022-08-19T14:31:14;28.20;50.40
10133;DHT22;5106;50.926;7.080;2022-08-19T14:33:44;28.10;50.70
10133;DHT22;5106;50.926;7.080;2022-08-19T14:36:09;28.10;51.90
10133;DHT22;5106;50.926;7.080;2022-08-19T14:38:35;28.10;52.10
10133;DHT22;5106;50.926;7.080;2022-08-19T14:41:19;28.10;53.60
10133;DHT22;5106;50.926;7.080;2022-08-19T14:43:47;28.10;53.10
10133;DHT22;5106;50.926;7.080;2022-08-19T14:46:20;28.10;52.60
10133;DHT22;5106;50.926;7.080;2022-08-19T14:48:47;28.10;52.10
10133;DHT22;5106;50.926;7.080;2022-08-19T14:51:13;28.10;50.60
10133;DHT22;5106;50.926;7.080;2022-08-19T14:53:39;28.00;50.90
10133;DHT22;5106;50.926;7.080;2022-08-19T14:56:10;27.90;50.70
10133;DHT22;5106;50.926;7.080;2022-08-19T14:58:37;27.80;52.10
10133;DHT22;5106;50.926;7.080;2022-08-19T15:01:03;27.90;52.30
10133;DHT22;5106;50.926;7.080;2022-08-19T15:03:30;28.00;52.70
10133;DHT22;5106;50.926;7.080;2022-08-19T15:05:57;28.10;53.00
10133;DHT22;5106;50.926;7.080;2022-08-19T15:08:23;28.20;53.00
10133;DHT22;5106;50.926;7.080;2022-08-19T15:10:51;28.30;52.20
10133;DHT22;5106;50.926;7.080;2022-08-19T15:13:17;28.40;53.30
10133;DHT22;5106;50.926;7.080;2022-08-19T15:15:43;28.60;52.20
10133;DHT22;5106;50.926;7.080;2022-08-19T15:18:08;28.70;51.90
10133;DHT22;5106;50.926;7.080;2022-08-19T15:20:34;28.80;50.40
10133;DHT22;5106;50.926;7.080;2022-08-19T15:23:00;29.00;49.40
10133;DHT22;5106;50.926;7.080;2022-08-19T15:25:26;29.20;49.10
10133;DHT22;5106;50.926;7.080;2022-08-19T15:27:52;29.40;48.80
10133;DHT22;5106;50.926;7.080;2022-08-19T15:30:26;29.20;47.80
10133;DHT22;5106;50.926;7.080;2022-08-19T15:32:52;28.70;48.50
10133;DHT22;5106;50.926;7.080;2022-08-19T15:35:19;28.40;49.20
10133;DHT22;5106;50.926;7.080;2022-08-19T15:37:49;28.20;50.00
10133;DHT22;5106;50.926;7.080;2022-08-19T15:40:15;28.40;50.90
10133;DHT22;5106;50.926;7.080;2022-08-19T15:42:41;28.70;49.70
10133;DHT22;5106;50.926;7.080;2022-08-19T15:45:08;29.10;47.00
10133;DHT22;5106;50.926;7.080;2022-08-19T15:47:35;29.50;48.60
10133;DHT22;5106;50.926;7.080;2022-08-19T15:52:32;29.80;46.30
10133;DHT22;5106;50.926;7.080;2022-08-19T15:54:58;29.70;46.00
10133;DHT22;5106;50.926;7.080;2022-08-19T15:57:24;29.70;46.70
10133;DHT22;5106;50.926;7.080;2022-08-19T15:59:50;29.70;47.00
10133;DHT22;5106;50.926;7.080;2022-08-19T16:02:34;29.80;46.60